首页
METAR-TAF:

METAR-TAF

机场 :

潘狄頓區域機場

Penticton, 不列颠哥伦比亚, 加拿大

纬度: 49-28N, 经度: 119-36W, 海拔: 344米

当前天气观测

该预报发布于19分钟前的21:39 UTC
风速5节,风向南转南东,在东转东南之间变化
温度 19°C
湿度 56%
气压 1014 hPa
能見度: 24.1公里
多云层高于8500英尺
多云层高于14000英尺
附近有阵雨

METAR: CYYF 262139Z 15005KT 120V190 15SM VCSH BKN085 BKN140 19/10 A2995 RMK ACC5AC2 SLP143 DENSITY ALT 1900FT

时间: 14:58 (21:58 UTC)

预报

该预报发布于3小时和20分钟前的18:38 UTC
预报有效从26日的 19点(UTC)到 27日的 07点(UTC)
风速10节,风向
能見度: 10公里
多云层高于7000英尺
多云层高于12000英尺
短暂存在
从 26日的 19点(UTC)到 27日的 03点(UTC)
能見度: 10公里
小阵雨
从 27日的 0300点(UTC)
风速5节,风向北转西北
能見度: 10公里
多云层高于10000英尺

TAF: CYYF 261838Z 2619/2707 35010KT P6SM BKN070 BKN120 TEMPO 2619/2703 P6SM -SHRA FM270300 33005KT P6SM BKN100 RMK NXT FCST BY 270100Z

超过4000个机场的气象观测和天气预报(METAR&TAF报告)。

可查询的气象台以黄色和红色小点在地图上表示。

将鼠标移到小点上方,可查看气象台名称。

然后点击查看天气观测和预报。

如需切换地图:点击带黑十字的绿色按钮放大地图;点击带横线的绿色按钮缩小地图;或者点击绿色箭头查看邻近地区的地图。


METAR-TAF: